NSZ6YA EFHK-EFRO
Flight info
| Callsign | NSZ6YA |
|---|---|
| Flight time | 1h 2m |
| Altitude | 38000 |
| Route | TEVRU Y75 MIMRU DCT EVSET Y86 RENVI |
| Aircraft | B38M/M-SDE1FGHILORVWXY/HB1 |
Departure
| Time | 2026-04-25 18:35 |
|---|---|
| Airport | Helsinki Vantaa Airport (EFHK) |
Arrival
| Time | 2026-04-25 19:37 |
|---|---|
| Airport | Rovaniemi Airport (EFRO) |
| Time | Latitude | Longitude | Altitude | Speed | Heading |
|---|---|---|---|---|---|
| 2026-04-25 18:07 | 60.31829 | 24.97046 | 166 ft | 0 kts | 242° |
| 2026-04-25 18:27 | 60.31831 | 24.97054 | 166 ft | 2 kts | 243° |
| 2026-04-25 18:27 | 60.31839 | 24.97090 | 166 ft | 3 kts | 252° |
| 2026-04-25 18:27 | 60.31844 | 24.97129 | 166 ft | 3 kts | 268° |
| 2026-04-25 18:27 | 60.31841 | 24.97165 | 166 ft | 3 kts | 299° |
| 2026-04-25 18:28 | 60.31832 | 24.97186 | 166 ft | 1 kts | 332° |
| 2026-04-25 18:28 | 60.31831 | 24.97187 | 166 ft | 1 kts | 333° |
| 2026-04-25 18:30 | 60.31833 | 24.97185 | 166 ft | 1 kts | 333° |
| 2026-04-25 18:30 | 60.31862 | 24.97155 | 166 ft | 9 kts | 332° |
| 2026-04-25 18:31 | 60.31948 | 24.97063 | 166 ft | 19 kts | 332° |
| 2026-04-25 18:31 | 60.32090 | 24.96908 | 166 ft | 26 kts | 331° |
| 2026-04-25 18:31 | 60.32249 | 24.96728 | 168 ft | 26 kts | 330° |
| 2026-04-25 18:31 | 60.32396 | 24.96557 | 177 ft | 22 kts | 330° |
| 2026-04-25 18:32 | 60.32529 | 24.96403 | 176 ft | 23 kts | 330° |
| 2026-04-25 18:32 | 60.32671 | 24.96239 | 174 ft | 25 kts | 330° |
| 2026-04-25 18:32 | 60.32826 | 24.96057 | 176 ft | 27 kts | 330° |
| 2026-04-25 18:32 | 60.33004 | 24.95850 | 182 ft | 31 kts | 330° |
| 2026-04-25 18:33 | 60.33173 | 24.95580 | 184 ft | 21 kts | 317° |
| 2026-04-25 18:33 | 60.33182 | 24.95332 | 182 ft | 21 kts | 227° |
| 2026-04-25 18:33 | 60.33110 | 24.95065 | 180 ft | 22 kts | 265° |
| 2026-04-25 18:33 | 60.33114 | 24.94763 | 184 ft | 21 kts | 273° |
| 2026-04-25 18:34 | 60.33121 | 24.94482 | 190 ft | 19 kts | 270° |
| 2026-04-25 18:34 | 60.33074 | 24.94304 | 195 ft | 10 kts | 227° |
| 2026-04-25 18:34 | 60.33011 | 24.94163 | 192 ft | 32 kts | 227° |
| 2026-04-25 18:34 | 60.32675 | 24.93375 | 181 ft | 112 kts | 226° |
| 2026-04-25 18:35 | 60.31966 | 24.91895 | 214 ft | 175 kts | 230° |
| 2026-04-25 18:35 | 60.31073 | 24.89992 | 889 ft | 193 kts | 233° |
| 2026-04-25 18:35 | 60.30250 | 24.88033 | 2117 ft | 183 kts | 248° |
| 2026-04-25 18:35 | 60.29953 | 24.85546 | 2584 ft | 190 kts | 287° |
| 2026-04-25 18:36 | 60.30408 | 24.82999 | 3252 ft | 198 kts | 304° |
| 2026-04-25 18:36 | 60.31059 | 24.80392 | 3969 ft | 218 kts | 301° |
| 2026-04-25 18:36 | 60.31748 | 24.77523 | 4692 ft | 235 kts | 302° |
| 2026-04-25 18:36 | 60.32580 | 24.74575 | 5540 ft | 247 kts | 303° |
| 2026-04-25 18:37 | 60.33439 | 24.71509 | 6461 ft | 254 kts | 302° |
| 2026-04-25 18:37 | 60.34303 | 24.68378 | 7477 ft | 257 kts | 301° |
| 2026-04-25 18:37 | 60.35238 | 24.65281 | 8484 ft | 259 kts | 313° |
| 2026-04-25 18:37 | 60.36694 | 24.63214 | 9488 ft | 260 kts | 339° |
| 2026-04-25 18:38 | 60.38533 | 24.62631 | 10082 ft | 280 kts | 2° |
| 2026-04-25 18:38 | 60.40498 | 24.63368 | 10670 ft | 296 kts | 10° |
| 2026-04-25 18:38 | 60.42558 | 24.64265 | 11274 ft | 309 kts | 10° |
| 2026-04-25 18:38 | 60.44696 | 24.65216 | 11965 ft | 319 kts | 11° |
| 2026-04-25 18:39 | 60.46893 | 24.66210 | 12705 ft | 327 kts | 11° |
| 2026-04-25 18:39 | 60.49131 | 24.67229 | 13487 ft | 333 kts | 11° |
| 2026-04-25 18:39 | 60.51384 | 24.68260 | 14197 ft | 339 kts | 11° |
| 2026-04-25 18:39 | 60.53703 | 24.69323 | 14934 ft | 344 kts | 11° |
| 2026-04-25 18:40 | 60.56056 | 24.70403 | 15677 ft | 349 kts | 11° |
| 2026-04-25 18:40 | 60.58448 | 24.71502 | 16403 ft | 355 kts | 11° |
| 2026-04-25 18:40 | 60.60878 | 24.72621 | 17137 ft | 360 kts | 11° |
| 2026-04-25 18:40 | 60.63339 | 24.73755 | 17819 ft | 366 kts | 11° |
| 2026-04-25 18:41 | 60.65838 | 24.74909 | 18429 ft | 370 kts | 11° |
| 2026-04-25 18:41 | 60.68368 | 24.76080 | 19038 ft | 375 kts | 11° |
| 2026-04-25 18:41 | 60.70933 | 24.77268 | 19624 ft | 380 kts | 11° |
| 2026-04-25 18:41 | 60.73528 | 24.78473 | 20228 ft | 384 kts | 11° |
| 2026-04-25 18:42 | 60.76154 | 24.79695 | 20803 ft | 389 kts | 11° |
| 2026-04-25 18:42 | 60.77046 | 24.80110 | 21000 ft | 390 kts | 11° |
| 2026-04-25 18:42 | 60.81496 | 24.82175 | 21937 ft | 398 kts | 9° |
| 2026-04-25 18:42 | 60.84241 | 24.82856 | 22515 ft | 399 kts | 3° |
| 2026-04-25 18:43 | 60.87023 | 24.83453 | 23060 ft | 404 kts | 4° |
| 2026-04-25 18:43 | 60.89830 | 24.84101 | 23507 ft | 408 kts | 4° |
| 2026-04-25 18:43 | 60.92661 | 24.84773 | 23999 ft | 410 kts | 4° |
| 2026-04-25 18:43 | 60.95476 | 24.85452 | 24459 ft | 413 kts | 4° |
| 2026-04-25 18:44 | 60.98344 | 24.86149 | 24921 ft | 416 kts | 4° |
| 2026-04-25 18:44 | 61.01231 | 24.86854 | 25387 ft | 419 kts | 4° |
| 2026-04-25 18:44 | 61.04138 | 24.87567 | 25850 ft | 422 kts | 4° |
| 2026-04-25 18:44 | 61.07060 | 24.88286 | 26299 ft | 425 kts | 4° |
| 2026-04-25 18:45 | 61.10007 | 24.89011 | 26748 ft | 427 kts | 4° |
| 2026-04-25 18:45 | 61.12965 | 24.89743 | 27168 ft | 430 kts | 4° |
| 2026-04-25 18:45 | 61.15948 | 24.90481 | 27606 ft | 433 kts | 4° |
| 2026-04-25 18:45 | 61.18948 | 24.91224 | 28024 ft | 435 kts | 4° |
| 2026-04-25 18:46 | 61.21968 | 24.91963 | 28431 ft | 438 kts | 4° |
| 2026-04-25 18:46 | 61.25009 | 24.92696 | 28837 ft | 440 kts | 4° |
| 2026-04-25 18:46 | 61.28059 | 24.93433 | 29229 ft | 443 kts | 4° |
| 2026-04-25 18:46 | 61.31142 | 24.93950 | 29580 ft | 444 kts | 359° |
| 2026-04-25 18:47 | 61.34237 | 24.94230 | 29878 ft | 447 kts | 360° |
| 2026-04-25 18:47 | 61.37351 | 24.94553 | 30185 ft | 449 kts | 360° |
| 2026-04-25 18:47 | 61.40482 | 24.94894 | 30472 ft | 452 kts | 0° |
| 2026-04-25 18:47 | 61.43636 | 24.95244 | 30754 ft | 455 kts | 0° |
| 2026-04-25 18:48 | 61.46803 | 24.95600 | 31047 ft | 457 kts | 0° |
| 2026-04-25 18:48 | 61.49991 | 24.95960 | 31334 ft | 459 kts | 0° |
| 2026-04-25 18:48 | 61.53193 | 24.96325 | 31597 ft | 462 kts | 0° |
| 2026-04-25 18:48 | 61.56411 | 24.96691 | 31880 ft | 464 kts | 0° |
| 2026-04-25 18:49 | 61.59651 | 24.97061 | 32158 ft | 466 kts | 0° |
| 2026-04-25 18:49 | 61.62859 | 24.97429 | 32429 ft | 469 kts | 0° |
| 2026-04-25 18:49 | 61.66116 | 24.97802 | 32746 ft | 470 kts | 0° |
| 2026-04-25 18:49 | 61.69380 | 24.98178 | 33115 ft | 469 kts | 0° |
| 2026-04-25 18:50 | 61.72640 | 24.98553 | 33462 ft | 469 kts | 0° |
| 2026-04-25 18:50 | 61.75908 | 24.98932 | 33766 ft | 469 kts | 0° |
| 2026-04-25 18:50 | 61.79169 | 24.99310 | 34069 ft | 468 kts | 0° |
| 2026-04-25 18:50 | 61.82420 | 24.99687 | 34394 ft | 468 kts | 1° |
| 2026-04-25 18:51 | 61.85667 | 25.00064 | 34721 ft | 467 kts | 0° |
| 2026-04-25 18:51 | 61.86766 | 25.00192 | 34833 ft | 467 kts | 0° |
| 2026-04-25 18:51 | 61.92156 | 25.00820 | 35328 ft | 466 kts | 0° |
| 2026-04-25 18:51 | 61.95391 | 25.01199 | 35641 ft | 465 kts | 0° |
| 2026-04-25 18:52 | 61.98621 | 25.01577 | 35947 ft | 464 kts | 0° |
| 2026-04-25 18:52 | 62.01808 | 25.01952 | 36249 ft | 464 kts | 0° |
| 2026-04-25 18:52 | 62.05031 | 25.02331 | 36543 ft | 463 kts | 1° |
| 2026-04-25 18:52 | 62.08247 | 25.02711 | 36829 ft | 463 kts | 0° |
| 2026-04-25 18:53 | 62.11465 | 25.03091 | 37120 ft | 462 kts | 1° |
| 2026-04-25 18:53 | 62.14682 | 25.03472 | 37376 ft | 462 kts | 0° |
| 2026-04-25 18:53 | 62.21110 | 25.03734 | 37486 ft | 461 kts | 359° |
| 2026-04-25 18:54 | 62.30719 | 25.04110 | 37489 ft | 460 kts | 359° |
| 2026-04-25 18:55 | 62.37127 | 25.04372 | 37495 ft | 461 kts | 359° |
| 2026-04-25 18:55 | 62.43534 | 25.04638 | 37491 ft | 461 kts | 359° |
| 2026-04-25 18:56 | 62.49901 | 25.04903 | 37497 ft | 461 kts | 359° |
| 2026-04-25 18:56 | 62.56319 | 25.05172 | 37508 ft | 461 kts | 359° |
| 2026-04-25 18:57 | 62.62729 | 25.05441 | 37515 ft | 461 kts | 359° |
| 2026-04-25 18:57 | 62.69153 | 25.05696 | 37529 ft | 461 kts | 359° |
| 2026-04-25 18:58 | 62.75569 | 25.05941 | 37526 ft | 461 kts | 359° |
| 2026-04-25 18:58 | 62.85184 | 25.06325 | 37536 ft | 461 kts | 359° |
| 2026-04-25 18:59 | 62.98008 | 25.06838 | 37544 ft | 461 kts | 359° |
| 2026-04-25 19:00 | 63.07625 | 25.07227 | 37553 ft | 461 kts | 359° |
| 2026-04-25 19:01 | 63.17202 | 25.07617 | 37556 ft | 461 kts | 359° |
| 2026-04-25 19:01 | 63.23611 | 25.07878 | 37559 ft | 461 kts | 359° |
| 2026-04-25 19:02 | 63.33217 | 25.09045 | 37569 ft | 462 kts | 4° |
| 2026-04-25 19:03 | 63.40701 | 25.10725 | 37566 ft | 462 kts | 4° |
| 2026-04-25 19:03 | 63.48155 | 25.12347 | 37567 ft | 462 kts | 4° |
| 2026-04-25 19:04 | 63.57766 | 25.14435 | 37566 ft | 463 kts | 4° |
| 2026-04-25 19:05 | 63.70582 | 25.17241 | 37580 ft | 463 kts | 3° |
| 2026-04-25 19:06 | 63.77020 | 25.18048 | 37576 ft | 463 kts | 1° |
| 2026-04-25 19:06 | 63.86665 | 25.19276 | 37582 ft | 462 kts | 1° |
| 2026-04-25 19:07 | 63.96273 | 25.20530 | 37588 ft | 463 kts | 2° |
| 2026-04-25 19:08 | 64.05920 | 25.21800 | 37584 ft | 462 kts | 2° |
| 2026-04-25 19:09 | 64.17692 | 25.23363 | 37583 ft | 463 kts | 2° |
| 2026-04-25 19:10 | 64.28423 | 25.24799 | 37589 ft | 463 kts | 2° |
| 2026-04-25 19:10 | 64.34846 | 25.25663 | 37587 ft | 462 kts | 2° |
| 2026-04-25 19:11 | 64.41277 | 25.26533 | 37522 ft | 464 kts | 2° |
| 2026-04-25 19:11 | 64.44457 | 25.26965 | 37212 ft | 461 kts | 2° |
| 2026-04-25 19:11 | 64.47664 | 25.27401 | 36319 ft | 464 kts | 2° |
| 2026-04-25 19:11 | 64.50917 | 25.27845 | 35322 ft | 471 kts | 2° |
| 2026-04-25 19:12 | 64.54191 | 25.28293 | 34742 ft | 468 kts | 2° |
| 2026-04-25 19:12 | 64.57421 | 25.28736 | 34273 ft | 463 kts | 2° |
| 2026-04-25 19:12 | 64.60621 | 25.29175 | 33787 ft | 458 kts | 2° |
| 2026-04-25 19:12 | 64.63790 | 25.29612 | 33258 ft | 454 kts | 2° |
| 2026-04-25 19:13 | 64.66931 | 25.30045 | 32719 ft | 449 kts | 2° |
| 2026-04-25 19:13 | 64.70034 | 25.30474 | 32211 ft | 444 kts | 2° |
| 2026-04-25 19:13 | 64.73103 | 25.30900 | 31717 ft | 439 kts | 2° |
| 2026-04-25 19:13 | 64.76138 | 25.31322 | 31240 ft | 435 kts | 2° |
| 2026-04-25 19:14 | 64.79147 | 25.31740 | 30771 ft | 430 kts | 2° |
| 2026-04-25 19:14 | 64.81117 | 25.32015 | 30474 ft | 428 kts | 2° |
| 2026-04-25 19:14 | 64.85064 | 25.32567 | 29873 ft | 422 kts | 2° |
| 2026-04-25 19:14 | 64.87986 | 25.32977 | 29279 ft | 420 kts | 2° |
| 2026-04-25 19:15 | 64.90934 | 25.33391 | 28294 ft | 425 kts | 2° |
| 2026-04-25 19:15 | 64.93857 | 25.33803 | 27404 ft | 428 kts | 2° |
| 2026-04-25 19:15 | 64.96844 | 25.34224 | 26536 ft | 431 kts | 2° |
| 2026-04-25 19:15 | 64.99845 | 25.34649 | 25683 ft | 432 kts | 2° |
| 2026-04-25 19:16 | 65.02854 | 25.35076 | 24864 ft | 433 kts | 2° |
| 2026-04-25 19:16 | 65.05864 | 25.35504 | 24070 ft | 433 kts | 2° |
| 2026-04-25 19:16 | 65.08878 | 25.35933 | 23301 ft | 433 kts | 3° |
| 2026-04-25 19:16 | 65.11893 | 25.36363 | 22399 ft | 432 kts | 3° |
| 2026-04-25 19:17 | 65.14888 | 25.36791 | 21500 ft | 431 kts | 3° |
| 2026-04-25 19:17 | 65.17877 | 25.37219 | 20730 ft | 427 kts | 3° |
| 2026-04-25 19:17 | 65.20828 | 25.37643 | 20033 ft | 422 kts | 3° |
| 2026-04-25 19:17 | 65.23744 | 25.38063 | 19353 ft | 417 kts | 2° |
| 2026-04-25 19:18 | 65.26627 | 25.38479 | 18703 ft | 413 kts | 2° |
| 2026-04-25 19:18 | 65.29480 | 25.38892 | 18057 ft | 408 kts | 2° |
| 2026-04-25 19:18 | 65.32305 | 25.39301 | 17348 ft | 405 kts | 2° |
| 2026-04-25 19:18 | 65.35064 | 25.39703 | 16638 ft | 401 kts | 2° |
| 2026-04-25 19:19 | 65.37835 | 25.40106 | 15936 ft | 397 kts | 3° |
| 2026-04-25 19:19 | 65.40578 | 25.40507 | 15253 ft | 393 kts | 3° |
| 2026-04-25 19:19 | 65.43301 | 25.40905 | 14584 ft | 390 kts | 3° |
| 2026-04-25 19:19 | 65.45090 | 25.41167 | 14151 ft | 387 kts | 3° |
| 2026-04-25 19:20 | 65.48665 | 25.41691 | 13278 ft | 383 kts | 3° |
| 2026-04-25 19:20 | 65.51317 | 25.42081 | 12565 ft | 379 kts | 3° |
| 2026-04-25 19:20 | 65.53943 | 25.42468 | 11861 ft | 375 kts | 3° |
| 2026-04-25 19:20 | 65.56536 | 25.42851 | 11182 ft | 372 kts | 3° |
| 2026-04-25 19:21 | 65.59102 | 25.43230 | 10520 ft | 368 kts | 3° |
| 2026-04-25 19:21 | 65.64109 | 25.43973 | 9698 ft | 350 kts | 3° |
| 2026-04-25 19:21 | 65.66479 | 25.44326 | 9678 ft | 332 kts | 3° |
| 2026-04-25 19:22 | 65.68757 | 25.44666 | 9634 ft | 325 kts | 3° |
| 2026-04-25 19:22 | 65.70950 | 25.44993 | 9473 ft | 314 kts | 2° |
| 2026-04-25 19:22 | 65.75174 | 25.45626 | 9041 ft | 295 kts | 3° |
| 2026-04-25 19:23 | 65.77193 | 25.45929 | 8824 ft | 286 kts | 3° |
| 2026-04-25 19:23 | 65.81062 | 25.46512 | 8392 ft | 271 kts | 3° |
| 2026-04-25 19:23 | 65.82921 | 25.46792 | 8174 ft | 264 kts | 3° |
| 2026-04-25 19:24 | 65.84740 | 25.47066 | 7950 ft | 258 kts | 3° |
| 2026-04-25 19:24 | 65.86523 | 25.47336 | 7744 ft | 256 kts | 3° |
| 2026-04-25 19:24 | 65.90055 | 25.47871 | 7319 ft | 253 kts | 3° |
| 2026-04-25 19:25 | 65.93561 | 25.48404 | 6892 ft | 252 kts | 3° |
| 2026-04-25 19:25 | 65.95308 | 25.48670 | 6696 ft | 251 kts | 3° |
| 2026-04-25 19:25 | 65.97048 | 25.48935 | 6619 ft | 250 kts | 3° |
| 2026-04-25 19:26 | 65.98795 | 25.49202 | 6619 ft | 251 kts | 3° |
| 2026-04-25 19:26 | 66.00536 | 25.49468 | 6624 ft | 251 kts | 3° |
| 2026-04-25 19:26 | 66.02279 | 25.49735 | 6623 ft | 251 kts | 3° |
| 2026-04-25 19:26 | 66.04020 | 25.50001 | 6616 ft | 251 kts | 3° |
| 2026-04-25 19:27 | 66.05764 | 25.50269 | 6446 ft | 251 kts | 3° |
| 2026-04-25 19:27 | 66.06913 | 25.50446 | 6315 ft | 249 kts | 3° |
| 2026-04-25 19:27 | 66.09199 | 25.50798 | 5988 ft | 244 kts | 3° |
| 2026-04-25 19:27 | 66.10884 | 25.51058 | 5697 ft | 241 kts | 3° |
| 2026-04-25 19:28 | 66.12551 | 25.51315 | 5421 ft | 239 kts | 3° |
| 2026-04-25 19:28 | 66.14196 | 25.51568 | 5177 ft | 235 kts | 3° |
| 2026-04-25 19:28 | 66.15796 | 25.51816 | 4925 ft | 232 kts | 4° |
| 2026-04-25 19:28 | 66.17399 | 25.52065 | 4670 ft | 229 kts | 4° |
| 2026-04-25 19:29 | 66.18981 | 25.52310 | 4420 ft | 226 kts | 4° |
| 2026-04-25 19:29 | 66.20547 | 25.52553 | 4163 ft | 224 kts | 4° |
| 2026-04-25 19:29 | 66.22093 | 25.52794 | 3905 ft | 221 kts | 4° |
| 2026-04-25 19:29 | 66.23621 | 25.53032 | 3654 ft | 219 kts | 4° |
| 2026-04-25 19:30 | 66.25133 | 25.53268 | 3400 ft | 216 kts | 4° |
| 2026-04-25 19:30 | 66.26647 | 25.53503 | 3141 ft | 214 kts | 4° |
| 2026-04-25 19:30 | 66.28100 | 25.53731 | 2932 ft | 210 kts | 4° |
| 2026-04-25 19:30 | 66.29550 | 25.53957 | 2678 ft | 207 kts | 4° |
| 2026-04-25 19:31 | 66.30965 | 25.54179 | 2557 ft | 199 kts | 4° |
| 2026-04-25 19:31 | 66.32344 | 25.54396 | 2538 ft | 199 kts | 4° |
| 2026-04-25 19:31 | 66.33728 | 25.54613 | 2529 ft | 199 kts | 4° |
| 2026-04-25 19:31 | 66.35110 | 25.54830 | 2534 ft | 199 kts | 4° |
| 2026-04-25 19:32 | 66.36488 | 25.55047 | 2523 ft | 198 kts | 4° |
| 2026-04-25 19:32 | 66.37867 | 25.55263 | 2523 ft | 198 kts | 4° |
| 2026-04-25 19:32 | 66.39227 | 25.55477 | 2516 ft | 192 kts | 4° |
| 2026-04-25 19:32 | 66.39674 | 25.55548 | 2518 ft | 190 kts | 4° |
| 2026-04-25 19:33 | 66.41827 | 25.56111 | 2507 ft | 181 kts | 19° |
| 2026-04-25 19:33 | 66.42893 | 25.57557 | 2519 ft | 171 kts | 33° |
| 2026-04-25 19:33 | 66.43855 | 25.59307 | 2563 ft | 170 kts | 34° |
| 2026-04-25 19:33 | 66.44795 | 25.61061 | 2586 ft | 171 kts | 34° |
| 2026-04-25 19:34 | 66.45746 | 25.62827 | 2541 ft | 170 kts | 34° |
| 2026-04-25 19:34 | 66.46691 | 25.64592 | 2504 ft | 166 kts | 34° |
| 2026-04-25 19:34 | 66.47569 | 25.66228 | 2487 ft | 152 kts | 34° |
| 2026-04-25 19:34 | 66.48409 | 25.67798 | 2433 ft | 151 kts | 34° |
| 2026-04-25 19:35 | 66.49225 | 25.69324 | 2265 ft | 140 kts | 34° |
| 2026-04-25 19:35 | 66.49973 | 25.70728 | 2103 ft | 131 kts | 34° |
| 2026-04-25 19:35 | 66.50692 | 25.72076 | 1917 ft | 128 kts | 34° |
| 2026-04-25 19:35 | 66.51400 | 25.73409 | 1729 ft | 127 kts | 34° |
| 2026-04-25 19:36 | 66.52108 | 25.74744 | 1533 ft | 127 kts | 34° |
| 2026-04-25 19:36 | 66.52821 | 25.76094 | 1276 ft | 129 kts | 34° |
| 2026-04-25 19:36 | 66.53552 | 25.77453 | 1101 ft | 132 kts | 35° |
| 2026-04-25 19:36 | 66.54286 | 25.78859 | 938 ft | 133 kts | 36° |
| 2026-04-25 19:37 | 66.55027 | 25.80267 | 775 ft | 134 kts | 35° |
| 2026-04-25 19:37 | 66.55763 | 25.81671 | 636 ft | 126 kts | 36° |
| 2026-04-25 19:37 | 66.56189 | 25.82484 | 648 ft | 104 kts | 37° |
| 2026-04-25 19:37 | 66.56615 | 25.83303 | 656 ft | 22 kts | 52° |
| 2026-04-25 19:38 | 66.56585 | 25.83558 | 647 ft | 20 kts | 127° |
| 2026-04-25 19:38 | 66.56545 | 25.83661 | 645 ft | 7 kts | 165° |
| 2026-04-25 19:38 | 66.56502 | 25.83617 | 647 ft | 7 kts | 215° |
| 2026-04-25 19:38 | 66.56455 | 25.83530 | 648 ft | 11 kts | 217° |
| 2026-04-25 19:39 | 66.56371 | 25.83372 | 648 ft | 20 kts | 217° |
| 2026-04-25 19:39 | 66.56242 | 25.83122 | 646 ft | 26 kts | 217° |
| 2026-04-25 19:39 | 66.56091 | 25.82835 | 644 ft | 29 kts | 217° |
| 2026-04-25 19:39 | 66.56002 | 25.82667 | 643 ft | 16 kts | 217° |
| 2026-04-25 19:40 | 66.55943 | 25.82632 | 643 ft | 8 kts | 158° |
| 2026-04-25 19:40 | 66.55901 | 25.82678 | 644 ft | 2 kts | 155° |
| 2026-04-25 19:40 | 66.55884 | 25.82699 | 644 ft | 4 kts | 155° |
| 2026-04-25 19:40 | 66.55867 | 25.82719 | 644 ft | 0 kts | 155° |